sensor_id;sensor_type;location;lat;lon;timestamp;P1;durP1;ratioP1;P2;durP2;ratioP2
23451;SDS011;11898;51.130;6.780;2022-10-16T11:46:01;0.72;;;0.70;;
23451;SDS011;11898;51.130;6.780;2022-10-16T12:03:29;1.65;;;0.60;;
23451;SDS011;11898;51.130;6.780;2022-10-16T12:13:47;0.53;;;0.53;;
23451;SDS011;11898;51.130;6.780;2022-10-16T12:18:46;0.78;;;0.62;;
23451;SDS011;11898;51.130;6.780;2022-10-16T12:21:15;1.02;;;0.80;;
23451;SDS011;11898;51.130;6.780;2022-10-16T12:23:47;0.50;;;0.50;;
23451;SDS011;11898;51.130;6.780;2022-10-16T12:28:43;0.82;;;0.30;;
23451;SDS011;11898;51.130;6.780;2022-10-16T12:31:13;1.85;;;0.50;;
23451;SDS011;11898;51.130;6.780;2022-10-16T12:33:53;2.52;;;0.88;;
23451;SDS011;11898;51.130;6.780;2022-10-16T12:36:28;2.02;;;0.88;;
23451;SDS011;11898;51.130;6.780;2022-10-16T12:38:57;1.62;;;0.70;;
23451;SDS011;11898;51.130;6.780;2022-10-16T12:41:32;2.15;;;0.80;;
23451;SDS011;11898;51.130;6.780;2022-10-16T12:43:56;0.55;;;0.50;;
23451;SDS011;11898;51.130;6.780;2022-10-16T12:54:13;1.55;;;0.60;;
23451;SDS011;11898;51.130;6.780;2022-10-16T12:56:55;1.32;;;0.95;;
23451;SDS011;11898;51.130;6.780;2022-10-16T13:10:16;1.27;;;0.70;;
23451;SDS011;11898;51.130;6.780;2022-10-16T13:23:19;1.72;;;0.70;;
23451;SDS011;11898;51.130;6.780;2022-10-16T13:25:54;1.00;;;0.85;;
23451;SDS011;11898;51.130;6.780;2022-10-16T13:28:21;0.75;;;0.70;;
23451;SDS011;11898;51.130;6.780;2022-10-16T13:30:52;1.00;;;0.90;;
23451;SDS011;11898;51.130;6.780;2022-10-16T13:36:01;0.90;;;0.53;;
23451;SDS011;11898;51.130;6.780;2022-10-16T13:38:30;1.35;;;0.70;;
23451;SDS011;11898;51.130;6.780;2022-10-16T13:41:04;1.10;;;0.70;;
23451;SDS011;11898;51.130;6.780;2022-10-16T13:43:37;1.10;;;0.50;;
23451;SDS011;11898;51.130;6.780;2022-10-16T13:48:33;1.32;;;0.78;;
23451;SDS011;11898;51.130;6.780;2022-10-16T13:51:10;2.05;;;0.82;;
23451;SDS011;11898;51.130;6.780;2022-10-16T13:53:32;2.98;;;0.70;;
23451;SDS011;11898;51.130;6.780;2022-10-16T13:56:01;1.87;;;0.82;;
23451;SDS011;11898;51.130;6.780;2022-10-16T13:58:31;1.45;;;0.62;;
23451;SDS011;11898;51.130;6.780;2022-10-16T14:01:04;0.60;;;0.60;;
23451;SDS011;11898;51.130;6.780;2022-10-16T14:03:35;1.37;;;0.68;;
23451;SDS011;11898;51.130;6.780;2022-10-16T14:06:03;4.00;;;0.80;;
23451;SDS011;11898;51.130;6.780;2022-10-16T14:08:33;0.70;;;0.60;;
23451;SDS011;11898;51.130;6.780;2022-10-16T14:11:01;0.93;;;0.53;;
23451;SDS011;11898;51.130;6.780;2022-10-16T14:13:39;0.75;;;0.65;;
23451;SDS011;11898;51.130;6.780;2022-10-16T14:16:09;2.35;;;0.80;;
23451;SDS011;11898;51.130;6.780;2022-10-16T14:18:38;0.70;;;0.40;;
23451;SDS011;11898;51.130;6.780;2022-10-16T14:21:10;0.75;;;0.55;;
23451;SDS011;11898;51.130;6.780;2022-10-16T14:23:40;1.02;;;0.90;;
23451;SDS011;11898;51.130;6.780;2022-10-16T14:28:41;2.90;;;1.35;;
23451;SDS011;11898;51.130;6.780;2022-10-16T14:33:59;2.10;;;1.00;;
23451;SDS011;11898;51.130;6.780;2022-10-16T14:36:28;1.37;;;0.80;;
23451;SDS011;11898;51.130;6.780;2022-10-16T14:39:02;0.65;;;0.62;;
23451;SDS011;11898;51.130;6.780;2022-10-16T14:41:31;0.45;;;0.42;;
23451;SDS011;11898;51.130;6.780;2022-10-16T14:44:03;0.72;;;0.70;;
23451;SDS011;11898;51.130;6.780;2022-10-16T14:46:33;1.50;;;0.82;;
23451;SDS011;11898;51.130;6.780;2022-10-16T14:51:40;1.12;;;0.60;;
23451;SDS011;11898;51.130;6.780;2022-10-16T14:54:13;1.00;;;0.50;;
23451;SDS011;11898;51.130;6.780;2022-10-16T14:56:49;1.15;;;0.53;;
23451;SDS011;11898;51.130;6.780;2022-10-16T14:59:18;1.82;;;0.60;;
23451;SDS011;11898;51.130;6.780;2022-10-16T15:01:47;0.72;;;0.60;;
23451;SDS011;11898;51.130;6.780;2022-10-16T15:04:17;1.95;;;0.60;;
23451;SDS011;11898;51.130;6.780;2022-10-16T15:06:47;2.12;;;0.47;;
23451;SDS011;11898;51.130;6.780;2022-10-16T15:09:15;1.57;;;0.78;;
23451;SDS011;11898;51.130;6.780;2022-10-16T15:11:43;1.65;;;0.65;;
23451;SDS011;11898;51.130;6.780;2022-10-16T15:14:12;0.60;;;0.50;;
23451;SDS011;11898;51.130;6.780;2022-10-16T15:16:41;0.80;;;0.65;;
23451;SDS011;11898;51.130;6.780;2022-10-16T15:19:09;1.92;;;0.70;;
23451;SDS011;11898;51.130;6.780;2022-10-16T15:21:37;1.72;;;0.70;;
23451;SDS011;11898;51.130;6.780;2022-10-16T15:24:08;3.77;;;0.60;;
23451;SDS011;11898;51.130;6.780;2022-10-16T15:26:36;1.05;;;0.70;;
23451;SDS011;11898;51.130;6.780;2022-10-16T15:29:04;2.80;;;0.55;;
23451;SDS011;11898;51.130;6.780;2022-10-16T15:31:33;1.15;;;0.90;;
23451;SDS011;11898;51.130;6.780;2022-10-16T15:34:01;2.00;;;1.55;;
23451;SDS011;11898;51.130;6.780;2022-10-16T15:36:33;2.75;;;0.82;;
23451;SDS011;11898;51.130;6.780;2022-10-16T15:39:03;2.77;;;1.40;;
23451;SDS011;11898;51.130;6.780;2022-10-16T15:41:32;1.50;;;1.05;;
23451;SDS011;11898;51.130;6.780;2022-10-16T15:44:00;2.42;;;1.10;;
23451;SDS011;11898;51.130;6.780;2022-10-16T15:46:29;1.22;;;1.12;;
23451;SDS011;11898;51.130;6.780;2022-10-16T15:48:58;3.90;;;1.10;;
23451;SDS011;11898;51.130;6.780;2022-10-16T15:51:29;2.17;;;1.55;;
23451;SDS011;11898;51.130;6.780;2022-10-16T15:53:59;2.15;;;1.80;;
23451;SDS011;11898;51.130;6.780;2022-10-16T15:56:29;2.55;;;1.50;;
23451;SDS011;11898;51.130;6.780;2022-10-16T15:58:59;1.30;;;1.20;;
23451;SDS011;11898;51.130;6.780;2022-10-16T16:01:33;2.83;;;1.30;;
23451;SDS011;11898;51.130;6.780;2022-10-16T16:04:02;1.57;;;1.13;;
23451;SDS011;11898;51.130;6.780;2022-10-16T16:06:33;1.98;;;1.12;;
23451;SDS011;11898;51.130;6.780;2022-10-16T16:09:01;3.83;;;1.50;;
23451;SDS011;11898;51.130;6.780;2022-10-16T16:11:30;3.08;;;1.00;;
23451;SDS011;11898;51.130;6.780;2022-10-16T16:13:59;1.30;;;1.10;;
23451;SDS011;11898;51.130;6.780;2022-10-16T16:16:27;3.33;;;1.45;;
23451;SDS011;11898;51.130;6.780;2022-10-16T16:18:55;1.77;;;1.00;;
23451;SDS011;11898;51.130;6.780;2022-10-16T16:21:24;1.32;;;0.98;;
23451;SDS011;11898;51.130;6.780;2022-10-16T16:23:52;1.10;;;1.02;;
23451;SDS011;11898;51.130;6.780;2022-10-16T16:26:24;2.70;;;1.62;;
23451;SDS011;11898;51.130;6.780;2022-10-16T16:28:57;2.17;;;1.50;;
23451;SDS011;11898;51.130;6.780;2022-10-16T16:31:26;1.12;;;0.88;;
23451;SDS011;11898;51.130;6.780;2022-10-16T16:33:54;4.12;;;1.35;;
23451;SDS011;11898;51.130;6.780;2022-10-16T16:36:24;3.75;;;1.72;;
23451;SDS011;11898;51.130;6.780;2022-10-16T16:38:53;3.27;;;1.20;;
23451;SDS011;11898;51.130;6.780;2022-10-16T16:41:23;0.95;;;0.90;;
23451;SDS011;11898;51.130;6.780;2022-10-16T16:43:52;0.90;;;0.90;;
23451;SDS011;11898;51.130;6.780;2022-10-16T16:46:21;3.70;;;1.30;;
23451;SDS011;11898;51.130;6.780;2022-10-16T16:48:49;2.27;;;1.10;;
23451;SDS011;11898;51.130;6.780;2022-10-16T16:51:19;1.60;;;1.22;;
23451;SDS011;11898;51.130;6.780;2022-10-16T16:53:48;2.70;;;2.15;;
23451;SDS011;11898;51.130;6.780;2022-10-16T16:56:17;3.92;;;2.08;;
23451;SDS011;11898;51.130;6.780;2022-10-16T16:58:46;3.05;;;2.00;;
23451;SDS011;11898;51.130;6.780;2022-10-16T17:01:15;1.92;;;1.72;;
23451;SDS011;11898;51.130;6.780;2022-10-16T17:03:45;3.40;;;2.30;;
23451;SDS011;11898;51.130;6.780;2022-10-16T17:06:13;3.17;;;2.37;;
23451;SDS011;11898;51.130;6.780;2022-10-16T17:08:43;2.30;;;1.90;;
23451;SDS011;11898;51.130;6.780;2022-10-16T17:11:12;2.67;;;1.77;;
23451;SDS011;11898;51.130;6.780;2022-10-16T17:13:41;2.15;;;1.52;;
23451;SDS011;11898;51.130;6.780;2022-10-16T17:16:09;2.15;;;1.50;;
23451;SDS011;11898;51.130;6.780;2022-10-16T17:18:38;3.92;;;2.65;;
23451;SDS011;11898;51.130;6.780;2022-10-16T17:21:07;3.30;;;2.60;;
23451;SDS011;11898;51.130;6.780;2022-10-16T17:23:36;2.15;;;1.22;;
23451;SDS011;11898;51.130;6.780;2022-10-16T17:26:09;6.03;;;4.28;;
23451;SDS011;11898;51.130;6.780;2022-10-16T17:28:37;1.40;;;1.27;;
23451;SDS011;11898;51.130;6.780;2022-10-16T17:31:09;3.72;;;2.20;;
23451;SDS011;11898;51.130;6.780;2022-10-16T17:33:37;6.67;;;2.75;;
23451;SDS011;11898;51.130;6.780;2022-10-16T17:36:06;1.77;;;1.67;;
23451;SDS011;11898;51.130;6.780;2022-10-16T17:38:34;5.72;;;5.22;;
23451;SDS011;11898;51.130;6.780;2022-10-16T17:41:12;3.10;;;2.40;;
23451;SDS011;11898;51.130;6.780;2022-10-16T17:43:41;3.58;;;3.10;;
23451;SDS011;11898;51.130;6.780;2022-10-16T17:46:10;6.67;;;4.33;;
23451;SDS011;11898;51.130;6.780;2022-10-16T17:48:40;1.52;;;1.37;;
23451;SDS011;11898;51.130;6.780;2022-10-16T17:51:09;2.77;;;1.42;;
23451;SDS011;11898;51.130;6.780;2022-10-16T17:53:38;2.40;;;1.80;;
23451;SDS011;11898;51.130;6.780;2022-10-16T17:56:11;3.27;;;2.50;;
23451;SDS011;11898;51.130;6.780;2022-10-16T18:01:13;2.30;;;1.20;;
23451;SDS011;11898;51.130;6.780;2022-10-16T18:03:42;1.47;;;1.37;;
23451;SDS011;11898;51.130;6.780;2022-10-16T18:06:10;2.67;;;1.72;;
23451;SDS011;11898;51.130;6.780;2022-10-16T18:08:39;2.25;;;1.60;;
23451;SDS011;11898;51.130;6.780;2022-10-16T18:11:08;9.95;;;4.55;;
23451;SDS011;11898;51.130;6.780;2022-10-16T18:13:37;6.33;;;3.67;;
23451;SDS011;11898;51.130;6.780;2022-10-16T18:16:06;5.78;;;3.92;;
23451;SDS011;11898;51.130;6.780;2022-10-16T18:18:37;2.95;;;1.75;;
23451;SDS011;11898;51.130;6.780;2022-10-16T18:21:06;2.55;;;1.70;;
23451;SDS011;11898;51.130;6.780;2022-10-16T18:23:35;1.65;;;1.55;;
23451;SDS011;11898;51.130;6.780;2022-10-16T18:26:04;3.12;;;1.45;;
23451;SDS011;11898;51.130;6.780;2022-10-16T18:28:32;2.10;;;1.75;;
23451;SDS011;11898;51.130;6.780;2022-10-16T18:31:05;2.42;;;1.70;;
23451;SDS011;11898;51.130;6.780;2022-10-16T18:33:31;1.37;;;1.27;;
23451;SDS011;11898;51.130;6.780;2022-10-16T18:36:01;2.35;;;1.92;;
23451;SDS011;11898;51.130;6.780;2022-10-16T18:38:29;5.15;;;2.05;;
23451;SDS011;11898;51.130;6.780;2022-10-16T18:40:58;1.60;;;1.50;;
23451;SDS011;11898;51.130;6.780;2022-10-16T18:43:28;1.92;;;1.80;;
23451;SDS011;11898;51.130;6.780;2022-10-16T18:45:57;1.50;;;1.40;;
23451;SDS011;11898;51.130;6.780;2022-10-16T18:48:26;1.85;;;1.55;;
23451;SDS011;11898;51.130;6.780;2022-10-16T18:51:10;1.62;;;1.52;;
23451;SDS011;11898;51.130;6.780;2022-10-16T18:53:36;3.83;;;1.65;;
23451;SDS011;11898;51.130;6.780;2022-10-16T18:56:05;1.55;;;1.42;;
23451;SDS011;11898;51.130;6.780;2022-10-16T18:58:34;2.10;;;1.70;;
23451;SDS011;11898;51.130;6.780;2022-10-16T19:01:03;1.82;;;1.47;;
23451;SDS011;11898;51.130;6.780;2022-10-16T19:03:32;2.15;;;1.70;;
23451;SDS011;11898;51.130;6.780;2022-10-16T19:06:02;3.58;;;1.92;;
23451;SDS011;11898;51.130;6.780;2022-10-16T19:08:30;1.87;;;1.77;;
23451;SDS011;11898;51.130;6.780;2022-10-16T19:11:03;2.25;;;1.80;;
23451;SDS011;11898;51.130;6.780;2022-10-16T19:13:32;4.42;;;1.75;;
23451;SDS011;11898;51.130;6.780;2022-10-16T19:16:00;2.00;;;1.80;;
23451;SDS011;11898;51.130;6.780;2022-10-16T19:18:30;1.80;;;1.70;;
23451;SDS011;11898;51.130;6.780;2022-10-16T19:21:04;2.45;;;2.15;;
23451;SDS011;11898;51.130;6.780;2022-10-16T19:23:33;2.27;;;1.67;;
23451;SDS011;11898;51.130;6.780;2022-10-16T19:26:08;2.58;;;2.10;;
23451;SDS011;11898;51.130;6.780;2022-10-16T19:28:31;2.37;;;2.17;;
23451;SDS011;11898;51.130;6.780;2022-10-16T19:31:15;3.70;;;3.12;;
23451;SDS011;11898;51.130;6.780;2022-10-16T19:33:39;4.53;;;3.60;;
23451;SDS011;11898;51.130;6.780;2022-10-16T19:36:08;5.08;;;3.17;;
23451;SDS011;11898;51.130;6.780;2022-10-16T19:38:37;3.20;;;2.27;;
23451;SDS011;11898;51.130;6.780;2022-10-16T19:41:09;3.25;;;2.55;;
23451;SDS011;11898;51.130;6.780;2022-10-16T19:43:38;3.87;;;3.05;;
23451;SDS011;11898;51.130;6.780;2022-10-16T19:46:07;4.90;;;3.10;;
23451;SDS011;11898;51.130;6.780;2022-10-16T19:48:36;3.08;;;2.20;;
23451;SDS011;11898;51.130;6.780;2022-10-16T19:51:06;5.42;;;2.15;;
23451;SDS011;11898;51.130;6.780;2022-10-16T19:53:36;2.22;;;1.65;;
23451;SDS011;11898;51.130;6.780;2022-10-16T19:56:17;4.03;;;1.70;;
23451;SDS011;11898;51.130;6.780;2022-10-16T19:58:48;1.77;;;1.50;;
23451;SDS011;11898;51.130;6.780;2022-10-16T20:01:16;3.00;;;1.90;;
23451;SDS011;11898;51.130;6.780;2022-10-16T20:03:45;2.83;;;2.08;;
23451;SDS011;11898;51.130;6.780;2022-10-16T20:06:14;2.42;;;2.22;;
23451;SDS011;11898;51.130;6.780;2022-10-16T20:08:43;2.58;;;2.00;;
23451;SDS011;11898;51.130;6.780;2022-10-16T20:11:13;2.17;;;1.98;;
23451;SDS011;11898;51.130;6.780;2022-10-16T20:13:41;2.50;;;2.02;;
23451;SDS011;11898;51.130;6.780;2022-10-16T20:16:10;3.40;;;2.67;;
23451;SDS011;11898;51.130;6.780;2022-10-16T20:18:39;2.65;;;2.20;;
23451;SDS011;11898;51.130;6.780;2022-10-16T20:21:08;2.35;;;1.77;;
23451;SDS011;11898;51.130;6.780;2022-10-16T20:23:36;2.10;;;1.90;;
23451;SDS011;11898;51.130;6.780;2022-10-16T20:26:14;2.05;;;1.85;;
23451;SDS011;11898;51.130;6.780;2022-10-16T20:28:44;2.05;;;1.80;;
23451;SDS011;11898;51.130;6.780;2022-10-16T20:31:18;1.98;;;1.87;;
23451;SDS011;11898;51.130;6.780;2022-10-16T20:33:44;3.15;;;1.95;;
23451;SDS011;11898;51.130;6.780;2022-10-16T20:36:13;2.67;;;1.62;;
23451;SDS011;11898;51.130;6.780;2022-10-16T20:38:41;2.75;;;2.00;;
23451;SDS011;11898;51.130;6.780;2022-10-16T20:41:10;2.27;;;1.72;;
23451;SDS011;11898;51.130;6.780;2022-10-16T20:43:40;1.80;;;1.70;;
23451;SDS011;11898;51.130;6.780;2022-10-16T20:46:10;3.27;;;2.20;;
23451;SDS011;11898;51.130;6.780;2022-10-16T20:48:41;2.25;;;2.05;;
23451;SDS011;11898;51.130;6.780;2022-10-16T20:51:14;2.62;;;1.85;;
23451;SDS011;11898;51.130;6.780;2022-10-16T20:53:43;2.33;;;1.80;;
23451;SDS011;11898;51.130;6.780;2022-10-16T20:56:13;2.12;;;1.80;;
23451;SDS011;11898;51.130;6.780;2022-10-16T20:58:44;1.95;;;1.82;;
23451;SDS011;11898;51.130;6.780;2022-10-16T21:01:13;1.65;;;1.47;;
23451;SDS011;11898;51.130;6.780;2022-10-16T21:03:42;2.05;;;1.80;;
23451;SDS011;11898;51.130;6.780;2022-10-16T21:06:11;2.35;;;2.02;;
23451;SDS011;11898;51.130;6.780;2022-10-16T21:08:40;1.87;;;1.75;;
23451;SDS011;11898;51.130;6.780;2022-10-16T21:11:17;2.60;;;1.95;;
23451;SDS011;11898;51.130;6.780;2022-10-16T21:13:41;2.05;;;1.80;;
23451;SDS011;11898;51.130;6.780;2022-10-16T21:16:10;1.90;;;1.70;;
23451;SDS011;11898;51.130;6.780;2022-10-16T21:18:39;4.78;;;2.45;;
23451;SDS011;11898;51.130;6.780;2022-10-16T21:21:18;2.00;;;1.80;;
23451;SDS011;11898;51.130;6.780;2022-10-16T21:23:40;2.75;;;2.20;;
23451;SDS011;11898;51.130;6.780;2022-10-16T21:26:08;2.15;;;2.00;;
23451;SDS011;11898;51.130;6.780;2022-10-16T21:28:37;3.30;;;2.35;;
23451;SDS011;11898;51.130;6.780;2022-10-16T21:31:18;2.42;;;2.05;;
23451;SDS011;11898;51.130;6.780;2022-10-16T21:33:46;3.95;;;1.90;;
23451;SDS011;11898;51.130;6.780;2022-10-16T21:36:19;2.75;;;2.25;;
23451;SDS011;11898;51.130;6.780;2022-10-16T21:38:47;2.70;;;2.10;;
23451;SDS011;11898;51.130;6.780;2022-10-16T21:41:18;3.60;;;2.40;;
23451;SDS011;11898;51.130;6.780;2022-10-16T21:43:46;2.92;;;2.37;;
23451;SDS011;11898;51.130;6.780;2022-10-16T21:46:15;3.10;;;2.10;;
23451;SDS011;11898;51.130;6.780;2022-10-16T21:48:43;2.45;;;2.15;;
23451;SDS011;11898;51.130;6.780;2022-10-16T21:51:13;2.87;;;2.25;;
23451;SDS011;11898;51.130;6.780;2022-10-16T21:53:42;2.65;;;2.30;;
23451;SDS011;11898;51.130;6.780;2022-10-16T21:56:14;2.27;;;2.00;;
23451;SDS011;11898;51.130;6.780;2022-10-16T21:58:43;2.33;;;2.05;;
23451;SDS011;11898;51.130;6.780;2022-10-16T22:01:13;4.05;;;2.25;;
23451;SDS011;11898;51.130;6.780;2022-10-16T22:03:42;2.65;;;2.37;;
23451;SDS011;11898;51.130;6.780;2022-10-16T22:06:11;2.40;;;2.20;;
23451;SDS011;11898;51.130;6.780;2022-10-16T22:08:40;2.80;;;2.60;;
23451;SDS011;11898;51.130;6.780;2022-10-16T22:11:10;3.70;;;2.70;;
23451;SDS011;11898;51.130;6.780;2022-10-16T22:13:38;2.90;;;2.35;;
23451;SDS011;11898;51.130;6.780;2022-10-16T22:16:07;3.85;;;2.50;;
23451;SDS011;11898;51.130;6.780;2022-10-16T22:18:36;3.70;;;3.02;;
23451;SDS011;11898;51.130;6.780;2022-10-16T22:21:10;2.75;;;2.50;;
23451;SDS011;11898;51.130;6.780;2022-10-16T22:23:34;4.30;;;2.90;;
23451;SDS011;11898;51.130;6.780;2022-10-16T22:26:06;3.45;;;2.75;;
23451;SDS011;11898;51.130;6.780;2022-10-16T22:28:35;3.00;;;2.65;;
23451;SDS011;11898;51.130;6.780;2022-10-16T22:31:04;3.00;;;2.70;;
23451;SDS011;11898;51.130;6.780;2022-10-16T22:33:33;3.37;;;3.08;;
23451;SDS011;11898;51.130;6.780;2022-10-16T22:36:02;3.50;;;3.08;;
23451;SDS011;11898;51.130;6.780;2022-10-16T22:38:31;5.35;;;3.60;;
23451;SDS011;11898;51.130;6.780;2022-10-16T22:41:03;3.42;;;3.12;;
23451;SDS011;11898;51.130;6.780;2022-10-16T22:43:36;4.83;;;3.40;;
23451;SDS011;11898;51.130;6.780;2022-10-16T22:46:05;3.95;;;3.20;;
23451;SDS011;11898;51.130;6.780;2022-10-16T22:48:34;5.80;;;3.35;;
23451;SDS011;11898;51.130;6.780;2022-10-16T22:51:02;3.70;;;3.40;;
23451;SDS011;11898;51.130;6.780;2022-10-16T22:53:31;4.20;;;3.58;;
23451;SDS011;11898;51.130;6.780;2022-10-16T22:55:59;4.33;;;3.77;;
23451;SDS011;11898;51.130;6.780;2022-10-16T22:58:29;4.30;;;3.90;;
23451;SDS011;11898;51.130;6.780;2022-10-16T23:00:57;4.08;;;3.67;;
23451;SDS011;11898;51.130;6.780;2022-10-16T23:03:26;4.05;;;3.65;;
23451;SDS011;11898;51.130;6.780;2022-10-16T23:05:54;4.28;;;3.80;;
23451;SDS011;11898;51.130;6.780;2022-10-16T23:08:22;5.40;;;4.30;;
23451;SDS011;11898;51.130;6.780;2022-10-16T23:10:51;3.70;;;3.40;;
23451;SDS011;11898;51.130;6.780;2022-10-16T23:13:19;4.10;;;3.70;;
23451;SDS011;11898;51.130;6.780;2022-10-16T23:15:47;4.37;;;3.85;;
23451;SDS011;11898;51.130;6.780;2022-10-16T23:18:15;4.45;;;4.03;;
23451;SDS011;11898;51.130;6.780;2022-10-16T23:20:43;5.62;;;4.28;;
23451;SDS011;11898;51.130;6.780;2022-10-16T23:23:12;4.37;;;3.98;;
23451;SDS011;11898;51.130;6.780;2022-10-16T23:25:43;4.70;;;4.15;;
23451;SDS011;11898;51.130;6.780;2022-10-16T23:28:10;5.12;;;4.40;;
23451;SDS011;11898;51.130;6.780;2022-10-16T23:30:38;5.00;;;4.00;;
23451;SDS011;11898;51.130;6.780;2022-10-16T23:33:06;6.10;;;4.37;;
23451;SDS011;11898;51.130;6.780;2022-10-16T23:35:37;6.85;;;4.42;;
23451;SDS011;11898;51.130;6.780;2022-10-16T23:38:04;7.45;;;5.08;;
23451;SDS011;11898;51.130;6.780;2022-10-16T23:40:32;4.67;;;4.20;;
23451;SDS011;11898;51.130;6.780;2022-10-16T23:43:01;5.05;;;4.20;;
23451;SDS011;11898;51.130;6.780;2022-10-16T23:45:29;5.58;;;4.00;;
23451;SDS011;11898;51.130;6.780;2022-10-16T23:47:57;4.75;;;4.25;;
23451;SDS011;11898;51.130;6.780;2022-10-16T23:50:25;5.87;;;4.80;;
23451;SDS011;11898;51.130;6.780;2022-10-16T23:52:55;7.05;;;4.58;;
23451;SDS011;11898;51.130;6.780;2022-10-16T23:55:23;5.58;;;4.22;;
23451;SDS011;11898;51.130;6.780;2022-10-16T23:57:51;6.62;;;4.70;;
